Ocana, Spain
Current Conditions -  °F | °C
As of 5:00 PM on Friday 19 Dec 2014 (Local Time) from LEGT Reporting Station
Clear Clear  
Wind Chill: 52°   Ceiling: Unl
Heat Index: 52°   Visibility: 6mi
Dew Point: 46°   Wind: 3mph
Humidity: 82%   Direction: 200°SSW
Pressure: 30.39"   Gusts: NA
Location:  39.96°N, 3.5°W
Report Text: LEGT 191600Z 20003KT CAVOK 11/08 Q1029
Loading
Personal Weather Stations






























Interactive Weather Map New forecast layout! Learn more

10-Day Weather Forecast

Advertisements
Track Severe Weather on mobile